<?xml version="1.0" encoding="utf-8"?>
<gpx xmlns:xsi="http://www.w3.org/2001/XMLSchema-instance" xmlns:xsd="http://www.w3.org/2001/XMLSchema" version="1.1" creator="Shapelink.com" xmlns="http://www.topografix.com/GPX/1/1" xmlns:gpxtpx="http://www.garmin.com/xmlschemas/TrackPointExtension/v1">
  <metadata>
    <name>Sykling 4.25 km, 2015-06-12</name>
    <desc></desc>
    <author><name>Mikael D</name></author> 
    <time>2015-06-12T11:54:41Z</time>
  </metadata>
  <trk>
    <name>Sykling 4.25 km, 2015-06-12</name>
    <trkseg>
      <trkpt lat="57.644067975001" lon="14.717057701876">
        <ele>312.8</ele>
        <time>2015-06-12T11:54:41Z</time>
      </trkpt>
      <trkpt lat="57.644071663037" lon="14.717046721587">
        <ele>312.8</ele>
        <time>2015-06-12T11:54:42Z</time>
      </trkpt>
      <trkpt lat="57.64408146986" lon="14.717037333859">
        <ele>312.8</ele>
        <time>2015-06-12T11:54:43Z</time>
      </trkpt>
      <trkpt lat="57.644097479289" lon="14.717009422132">
        <ele>312.8</ele>
        <time>2015-06-12T11:54:44Z</time>
      </trkpt>
      <trkpt lat="57.644127318853" lon="14.716970446297">
        <ele>312.6</ele>
        <time>2015-06-12T11:54:45Z</time>
      </trkpt>
      <trkpt lat="57.644156320227" lon="14.716938511258">
        <ele>312.6</ele>
        <time>2015-06-12T11:54:46Z</time>
      </trkpt>
      <trkpt lat="57.644203510324" lon="14.716882687804">
        <ele>312.2</ele>
        <time>2015-06-12T11:54:47Z</time>
      </trkpt>
      <trkpt lat="57.644259082321" lon="14.716834156603">
        <ele>312.4</ele>
        <time>2015-06-12T11:54:48Z</time>
      </trkpt>
      <trkpt lat="57.64430861935" lon="14.716780680081">
        <ele>312.2</ele>
        <time>2015-06-12T11:54:49Z</time>
      </trkpt>
      <trkpt lat="57.644377602387" lon="14.716708344284">
        <ele>312</ele>
        <time>2015-06-12T11:54:50Z</time>
      </trkpt>
      <trkpt lat="57.644445495777" lon="14.716643552197">
        <ele>312.2</ele>
        <time>2015-06-12T11:54:51Z</time>
      </trkpt>
      <trkpt lat="57.644512383339" lon="14.71658378925">
        <ele>312.2</ele>
        <time>2015-06-12T11:54:52Z</time>
      </trkpt>
      <trkpt lat="57.644587485163" lon="14.716512040186">
        <ele>312.4</ele>
        <time>2015-06-12T11:54:53Z</time>
      </trkpt>
      <trkpt lat="57.644652696345" lon="14.716443476244">
        <ele>312.4</ele>
        <time>2015-06-12T11:54:54Z</time>
      </trkpt>
      <trkpt lat="57.644724780685" lon="14.716364267289">
        <ele>312.4</ele>
        <time>2015-06-12T11:54:55Z</time>
      </trkpt>
      <trkpt lat="57.644794098998" lon="14.716287656723">
        <ele>312.6</ele>
        <time>2015-06-12T11:54:56Z</time>
      </trkpt>
      <trkpt lat="57.644861405655" lon="14.716212554899">
        <ele>312.6</ele>
        <time>2015-06-12T11:54:57Z</time>
      </trkpt>
      <trkpt lat="57.644923431715" lon="14.716139297093">
        <ele>312.8</ele>
        <time>2015-06-12T11:54:58Z</time>
      </trkpt>
      <trkpt lat="57.644988056164" lon="14.716054723722">
        <ele>312.8</ele>
        <time>2015-06-12T11:54:59Z</time>
      </trkpt>
      <trkpt lat="57.645053099708" lon="14.715961936089">
        <ele>312.8</ele>
        <time>2015-06-12T11:55:00Z</time>
      </trkpt>
      <trkpt lat="57.645113533207" lon="14.715873087949">
        <ele>312.8</ele>
        <time>2015-06-12T11:55:01Z</time>
      </trkpt>
      <trkpt lat="57.645173547611" lon="14.715784575085">
        <ele>312.6</ele>
        <time>2015-06-12T11:55:02Z</time>
      </trkpt>
      <trkpt lat="57.645233478196" lon="14.715690446348">
        <ele>312.6</ele>
        <time>2015-06-12T11:55:03Z</time>
      </trkpt>
      <trkpt lat="57.645286451804" lon="14.715612075583">
        <ele>312.6</ele>
        <time>2015-06-12T11:55:04Z</time>
      </trkpt>
      <trkpt lat="57.645350908615" lon="14.715506631281">
        <ele>312.4</ele>
        <time>2015-06-12T11:55:05Z</time>
      </trkpt>
      <trkpt lat="57.645406480612" lon="14.715405545567">
        <ele>312.4</ele>
        <time>2015-06-12T11:55:06Z</time>
      </trkpt>
      <trkpt lat="57.645461298238" lon="14.715305633319">
        <ele>312.2</ele>
        <time>2015-06-12T11:55:07Z</time>
      </trkpt>
      <trkpt lat="57.645514607122" lon="14.715201865397">
        <ele>312.2</ele>
        <time>2015-06-12T11:55:08Z</time>
      </trkpt>
      <trkpt lat="57.645552241853" lon="14.715087033367">
        <ele>312.2</ele>
        <time>2015-06-12T11:55:09Z</time>
      </trkpt>
      <trkpt lat="57.64557260987" lon="14.714952252415">
        <ele>312.4</ele>
        <time>2015-06-12T11:55:10Z</time>
      </trkpt>
      <trkpt lat="57.645572274594" lon="14.714814118703">
        <ele>312.8</ele>
        <time>2015-06-12T11:55:11Z</time>
      </trkpt>
      <trkpt lat="57.645555594613" lon="14.714680846493">
        <ele>313.2</ele>
        <time>2015-06-12T11:55:12Z</time>
      </trkpt>
      <trkpt lat="57.645528353438" lon="14.714568529033">
        <ele>313.4</ele>
        <time>2015-06-12T11:55:13Z</time>
      </trkpt>
      <trkpt lat="57.6454862763" lon="14.71448496149">
        <ele>313.6</ele>
        <time>2015-06-12T11:55:14Z</time>
      </trkpt>
      <trkpt lat="57.64543095576" lon="14.714417822471">
        <ele>313.8</ele>
        <time>2015-06-12T11:55:15Z</time>
      </trkpt>
      <trkpt lat="57.645378317428" lon="14.714373063125">
        <ele>314.2</ele>
        <time>2015-06-12T11:55:16Z</time>
      </trkpt>
      <trkpt lat="57.645317632472" lon="14.714332830005">
        <ele>314.4</ele>
        <time>2015-06-12T11:55:17Z</time>
      </trkpt>
      <trkpt lat="57.645259881181" lon="14.714296787835">
        <ele>314.6</ele>
        <time>2015-06-12T11:55:18Z</time>
      </trkpt>
      <trkpt lat="57.645213445455" lon="14.714243059856">
        <ele>314.8</ele>
        <time>2015-06-12T11:55:19Z</time>
      </trkpt>
      <trkpt lat="57.645181510416" lon="14.714142644694">
        <ele>314.8</ele>
        <time>2015-06-12T11:55:20Z</time>
      </trkpt>
      <trkpt lat="57.645178995846" lon="14.714030327234">
        <ele>315</ele>
        <time>2015-06-12T11:55:21Z</time>
      </trkpt>
      <trkpt lat="57.645182683882" lon="14.713934522117">
        <ele>315.2</ele>
        <time>2015-06-12T11:55:22Z</time>
      </trkpt>
      <trkpt lat="57.645188048298" lon="14.713821869381">
        <ele>315.4</ele>
        <time>2015-06-12T11:55:23Z</time>
      </trkpt>
      <trkpt lat="57.645192323067" lon="14.713723549694">
        <ele>315.6</ele>
        <time>2015-06-12T11:55:24Z</time>
      </trkpt>
      <trkpt lat="57.645194418542" lon="14.713617351021">
        <ele>315.8</ele>
        <time>2015-06-12T11:55:25Z</time>
      </trkpt>
      <trkpt lat="57.645196681655" lon="14.713521797361">
        <ele>316.2</ele>
        <time>2015-06-12T11:55:26Z</time>
      </trkpt>
      <trkpt lat="57.645200788786" lon="14.713419454362">
        <ele>316.4</ele>
        <time>2015-06-12T11:55:27Z</time>
      </trkpt>
      <trkpt lat="57.645205231193" lon="14.713329768032">
        <ele>316.6</ele>
        <time>2015-06-12T11:55:28Z</time>
      </trkpt>
      <trkpt lat="57.645207494306" lon="14.713230107241">
        <ele>316.8</ele>
        <time>2015-06-12T11:55:29Z</time>
      </trkpt>
      <trkpt lat="57.645208332496" lon="14.71312960826">
        <ele>316.8</ele>
        <time>2015-06-12T11:55:30Z</time>
      </trkpt>
      <trkpt lat="57.645213445455" lon="14.713031791487">
        <ele>317</ele>
        <time>2015-06-12T11:55:31Z</time>
      </trkpt>
      <trkpt lat="57.64521889369" lon="14.712934812904">
        <ele>317.2</ele>
        <time>2015-06-12T11:55:32Z</time>
      </trkpt>
      <trkpt lat="57.645220737708" lon="14.712838253416">
        <ele>317.4</ele>
        <time>2015-06-12T11:55:33Z</time>
      </trkpt>
      <trkpt lat="57.64522308464" lon="14.71274404086">
        <ele>317.6</ele>
        <time>2015-06-12T11:55:34Z</time>
      </trkpt>
      <trkpt lat="57.645215708568" lon="14.712648068105">
        <ele>317.6</ele>
        <time>2015-06-12T11:55:35Z</time>
      </trkpt>
      <trkpt lat="57.645211685256" lon="14.712545641287">
        <ele>317.8</ele>
        <time>2015-06-12T11:55:36Z</time>
      </trkpt>
      <trkpt lat="57.645204225365" lon="14.712446902505">
        <ele>317.8</ele>
        <time>2015-06-12T11:55:37Z</time>
      </trkpt>
      <trkpt lat="57.645195759646" lon="14.712344056592">
        <ele>318</ele>
        <time>2015-06-12T11:55:38Z</time>
      </trkpt>
      <trkpt lat="57.645187964479" lon="14.712244814896">
        <ele>318</ele>
        <time>2015-06-12T11:55:39Z</time>
      </trkpt>
      <trkpt lat="57.645179247303" lon="14.712140711698">
        <ele>318.2</ele>
        <time>2015-06-12T11:55:40Z</time>
      </trkpt>
      <trkpt lat="57.645173966706" lon="14.712031495541">
        <ele>318</ele>
        <time>2015-06-12T11:55:41Z</time>
      </trkpt>
      <trkpt lat="57.645167680281" lon="14.7119192619">
        <ele>318.2</ele>
        <time>2015-06-12T11:55:42Z</time>
      </trkpt>
      <trkpt lat="57.645160471847" lon="14.711809123734">
        <ele>318.4</ele>
        <time>2015-06-12T11:55:43Z</time>
      </trkpt>
      <trkpt lat="57.645156532354" lon="14.711705774907">
        <ele>318.4</ele>
        <time>2015-06-12T11:55:44Z</time>
      </trkpt>
      <trkpt lat="57.645148150454" lon="14.711597229302">
        <ele>318.4</ele>
        <time>2015-06-12T11:55:45Z</time>
      </trkpt>
      <trkpt lat="57.645138595088" lon="14.711496646502">
        <ele>318.4</ele>
        <time>2015-06-12T11:55:46Z</time>
      </trkpt>
      <trkpt lat="57.645129961731" lon="14.711379635178">
        <ele>318.6</ele>
        <time>2015-06-12T11:55:47Z</time>
      </trkpt>
      <trkpt lat="57.645125100229" lon="14.711273101229">
        <ele>318.6</ele>
        <time>2015-06-12T11:55:48Z</time>
      </trkpt>
      <trkpt lat="57.645121579831" lon="14.711174278628">
        <ele>318.6</ele>
        <time>2015-06-12T11:55:49Z</time>
      </trkpt>
      <trkpt lat="57.645115041949" lon="14.711064056643">
        <ele>318.8</ele>
        <time>2015-06-12T11:55:50Z</time>
      </trkpt>
      <trkpt lat="57.645105151307" lon="14.710959701988">
        <ele>319</ele>
        <time>2015-06-12T11:55:51Z</time>
      </trkpt>
      <trkpt lat="57.645094422475" lon="14.710862136672">
        <ele>319.2</ele>
        <time>2015-06-12T11:55:52Z</time>
      </trkpt>
      <trkpt lat="57.645084699471" lon="14.710745628262">
        <ele>319.2</ele>
        <time>2015-06-12T11:55:53Z</time>
      </trkpt>
      <trkpt lat="57.645076485209" lon="14.710640519236">
        <ele>319.2</ele>
        <time>2015-06-12T11:55:54Z</time>
      </trkpt>
      <trkpt lat="57.645071707526" lon="14.710526776853">
        <ele>319.2</ele>
        <time>2015-06-12T11:55:55Z</time>
      </trkpt>
      <trkpt lat="57.64506382854" lon="14.710415632859">
        <ele>319.2</ele>
        <time>2015-06-12T11:55:56Z</time>
      </trkpt>
      <trkpt lat="57.645056620106" lon="14.710300549372">
        <ele>319.2</ele>
        <time>2015-06-12T11:55:57Z</time>
      </trkpt>
      <trkpt lat="57.645047819111" lon="14.710194937432">
        <ele>319.2</ele>
        <time>2015-06-12T11:55:58Z</time>
      </trkpt>
      <trkpt lat="57.645041448867" lon="14.710078512841">
        <ele>319.2</ele>
        <time>2015-06-12T11:55:59Z</time>
      </trkpt>
      <trkpt lat="57.645048657301" lon="14.709957142929">
        <ele>319.2</ele>
        <time>2015-06-12T11:56:00Z</time>
      </trkpt>
      <trkpt lat="57.645071958983" lon="14.709846250392">
        <ele>319</ele>
        <time>2015-06-12T11:56:01Z</time>
      </trkpt>
      <trkpt lat="57.645107246782" lon="14.709743991212">
        <ele>318.8</ele>
        <time>2015-06-12T11:56:02Z</time>
      </trkpt>
      <trkpt lat="57.645145552065" lon="14.709636954349">
        <ele>318.6</ele>
        <time>2015-06-12T11:56:03Z</time>
      </trkpt>
      <trkpt lat="57.64517949876" lon="14.709542238879">
        <ele>318.4</ele>
        <time>2015-06-12T11:56:04Z</time>
      </trkpt>
      <trkpt lat="57.645218474595" lon="14.709415001637">
        <ele>318.4</ele>
        <time>2015-06-12T11:56:05Z</time>
      </trkpt>
      <trkpt lat="57.645251834557" lon="14.709296313933">
        <ele>318.2</ele>
        <time>2015-06-12T11:56:06Z</time>
      </trkpt>
      <trkpt lat="57.645289469288" lon="14.709179134971">
        <ele>318</ele>
        <time>2015-06-12T11:56:07Z</time>
      </trkpt>
      <trkpt lat="57.645327104019" lon="14.709052987376">
        <ele>318</ele>
        <time>2015-06-12T11:56:08Z</time>
      </trkpt>
      <trkpt lat="57.645361888904" lon="14.708937652432">
        <ele>317.6</ele>
        <time>2015-06-12T11:56:09Z</time>
      </trkpt>
      <trkpt lat="57.645386112595" lon="14.708861293323">
        <ele>317.6</ele>
        <time>2015-06-12T11:56:10Z</time>
      </trkpt>
      <trkpt lat="57.645444869714" lon="14.708680914835">
        <ele>317.2</ele>
        <time>2015-06-12T11:56:11Z</time>
      </trkpt>
      <trkpt lat="57.645483258816" lon="14.708551917394">
        <ele>316.8</ele>
        <time>2015-06-12T11:56:12Z</time>
      </trkpt>
      <trkpt lat="57.645523072841" lon="14.708422249401">
        <ele>316.6</ele>
        <time>2015-06-12T11:56:13Z</time>
      </trkpt>
      <trkpt lat="57.645562886866" lon="14.708304483706">
        <ele>316.4</ele>
        <time>2015-06-12T11:56:14Z</time>
      </trkpt>
      <trkpt lat="57.645612926809" lon="14.708177665559">
        <ele>315.8</ele>
        <time>2015-06-12T11:56:15Z</time>
      </trkpt>
      <trkpt lat="57.645647963151" lon="14.708054116353">
        <ele>315.2</ele>
        <time>2015-06-12T11:56:16Z</time>
      </trkpt>
      <trkpt lat="57.6456539143" lon="14.707893016235">
        <ele>314.6</ele>
        <time>2015-06-12T11:56:17Z</time>
      </trkpt>
      <trkpt lat="57.645617453035" lon="14.707754211971">
        <ele>314.2</ele>
        <time>2015-06-12T11:56:18Z</time>
      </trkpt>
      <trkpt lat="57.645512092552" lon="14.70759084874">
        <ele>313.6</ele>
        <time>2015-06-12T11:56:20Z</time>
      </trkpt>
      <trkpt lat="57.645439756755" lon="14.707590178188">
        <ele>314.4</ele>
        <time>2015-06-12T11:56:21Z</time>
      </trkpt>
      <trkpt lat="57.645368678243" lon="14.707518512943">
        <ele>314.4</ele>
        <time>2015-06-12T11:56:22Z</time>
      </trkpt>
      <trkpt lat="57.645301539224" lon="14.707440309816">
        <ele>314.4</ele>
        <time>2015-06-12T11:56:23Z</time>
      </trkpt>
      <trkpt lat="57.64524152482" lon="14.707362441965">
        <ele>314.6</ele>
        <time>2015-06-12T11:56:24Z</time>
      </trkpt>
      <trkpt lat="57.645176481276" lon="14.707272504178">
        <ele>314.6</ele>
        <time>2015-06-12T11:56:25Z</time>
      </trkpt>
      <trkpt lat="57.645114622854" lon="14.707192540852">
        <ele>314.8</ele>
        <time>2015-06-12T11:56:26Z</time>
      </trkpt>
      <trkpt lat="57.645050836595" lon="14.707118612494">
        <ele>314.8</ele>
        <time>2015-06-12T11:56:27Z</time>
      </trkpt>
      <trkpt lat="57.644991241286" lon="14.707056502615">
        <ele>315</ele>
        <time>2015-06-12T11:56:28Z</time>
      </trkpt>
      <trkpt lat="57.644926281561" lon="14.706997494039">
        <ele>314.8</ele>
        <time>2015-06-12T11:56:29Z</time>
      </trkpt>
      <trkpt lat="57.644852939936" lon="14.706942844051">
        <ele>315</ele>
        <time>2015-06-12T11:56:30Z</time>
      </trkpt>
      <trkpt lat="57.644781861424" lon="14.706897246515">
        <ele>315</ele>
        <time>2015-06-12T11:56:31Z</time>
      </trkpt>
      <trkpt lat="57.644709357989" lon="14.706857851585">
        <ele>315.6</ele>
        <time>2015-06-12T11:56:32Z</time>
      </trkpt>
      <trkpt lat="57.644636603097" lon="14.706814349524">
        <ele>315.8</ele>
        <time>2015-06-12T11:56:33Z</time>
      </trkpt>
      <trkpt lat="57.644574493218" lon="14.706778810268">
        <ele>316</ele>
        <time>2015-06-12T11:56:34Z</time>
      </trkpt>
      <trkpt lat="57.644499391394" lon="14.706732123085">
        <ele>316.4</ele>
        <time>2015-06-12T11:56:35Z</time>
      </trkpt>
      <trkpt lat="57.644430408357" lon="14.706688453386">
        <ele>316.4</ele>
        <time>2015-06-12T11:56:36Z</time>
      </trkpt>
      <trkpt lat="57.644364275166" lon="14.706658194727">
        <ele>316.6</ele>
        <time>2015-06-12T11:56:37Z</time>
      </trkpt>
      <trkpt lat="57.644298393432" lon="14.706618464521">
        <ele>316.8</ele>
        <time>2015-06-12T11:56:38Z</time>
      </trkpt>
      <trkpt lat="57.644252879715" lon="14.706542189231">
        <ele>316.8</ele>
        <time>2015-06-12T11:56:39Z</time>
      </trkpt>
      <trkpt lat="57.644242569978" lon="14.706405480442">
        <ele>316.8</ele>
        <time>2015-06-12T11:56:40Z</time>
      </trkpt>
      <trkpt lat="57.644245252186" lon="14.70626231759">
        <ele>316.2</ele>
        <time>2015-06-12T11:56:41Z</time>
      </trkpt>
      <trkpt lat="57.64424659329" lon="14.706117813634">
        <ele>315.6</ele>
        <time>2015-06-12T11:56:42Z</time>
      </trkpt>
      <trkpt lat="57.64424324053" lon="14.705956126783">
        <ele>315.4</ele>
        <time>2015-06-12T11:56:43Z</time>
      </trkpt>
      <trkpt lat="57.644229997128" lon="14.70580969499">
        <ele>315.2</ele>
        <time>2015-06-12T11:56:44Z</time>
      </trkpt>
      <trkpt lat="57.644210802577" lon="14.705652702003">
        <ele>314.6</ele>
        <time>2015-06-12T11:56:45Z</time>
      </trkpt>
      <trkpt lat="57.644193619682" lon="14.705502330717">
        <ele>314.2</ele>
        <time>2015-06-12T11:56:46Z</time>
      </trkpt>
      <trkpt lat="57.64417618533" lon="14.705334189803">
        <ele>313.4</ele>
        <time>2015-06-12T11:56:47Z</time>
      </trkpt>
      <trkpt lat="57.644157996607" lon="14.705178035006">
        <ele>313</ele>
        <time>2015-06-12T11:56:48Z</time>
      </trkpt>
      <trkpt lat="57.6441367904" lon="14.705022383123">
        <ele>312.4</ele>
        <time>2015-06-12T11:56:49Z</time>
      </trkpt>
      <trkpt lat="57.644111560881" lon="14.704853068743">
        <ele>311.6</ele>
        <time>2015-06-12T11:56:50Z</time>
      </trkpt>
      <trkpt lat="57.644087253371" lon="14.704690208426">
        <ele>311</ele>
        <time>2015-06-12T11:56:51Z</time>
      </trkpt>
      <trkpt lat="57.644067136811" lon="14.704552829085">
        <ele>310.4</ele>
        <time>2015-06-12T11:56:52Z</time>
      </trkpt>
      <trkpt lat="57.644052049391" lon="14.704433303191">
        <ele>309.8</ele>
        <time>2015-06-12T11:56:53Z</time>
      </trkpt>
      <trkpt lat="57.644049031907" lon="14.704374378434">
        <ele>309.4</ele>
        <time>2015-06-12T11:56:54Z</time>
      </trkpt>
      <trkpt lat="57.644049199545" lon="14.704332971848">
        <ele>309.2</ele>
        <time>2015-06-12T11:56:55Z</time>
      </trkpt>
      <trkpt lat="57.644044924776" lon="14.704298857515">
        <ele>308.6</ele>
        <time>2015-06-12T11:56:56Z</time>
      </trkpt>
      <trkpt lat="57.644037381066" lon="14.704254265807">
        <ele>308.6</ele>
        <time>2015-06-12T11:56:57Z</time>
      </trkpt>
      <trkpt lat="57.644023383293" lon="14.704188300254">
        <ele>308.6</ele>
        <time>2015-06-12T11:56:58Z</time>
      </trkpt>
      <trkpt lat="57.644007206226" lon="14.7040905673">
        <ele>308.6</ele>
        <time>2015-06-12T11:56:59Z</time>
      </trkpt>
      <trkpt lat="57.643986335295" lon="14.703970370854">
        <ele>308.4</ele>
        <time>2015-06-12T11:57:00Z</time>
      </trkpt>
      <trkpt lat="57.643964709993" lon="14.703844893811">
        <ele>308.2</ele>
        <time>2015-06-12T11:57:01Z</time>
      </trkpt>
      <trkpt lat="57.643951801867" lon="14.703707682108">
        <ele>308</ele>
        <time>2015-06-12T11:57:02Z</time>
      </trkpt>
      <trkpt lat="57.643945515442" lon="14.70356753674">
        <ele>307.6</ele>
        <time>2015-06-12T11:57:03Z</time>
      </trkpt>
      <trkpt lat="57.643939229017" lon="14.703425379716">
        <ele>307.4</ele>
        <time>2015-06-12T11:57:04Z</time>
      </trkpt>
      <trkpt lat="57.643915675878" lon="14.703285737262">
        <ele>307</ele>
        <time>2015-06-12T11:57:05Z</time>
      </trkpt>
      <trkpt lat="57.643894637309" lon="14.703139473107">
        <ele>306.6</ele>
        <time>2015-06-12T11:57:06Z</time>
      </trkpt>
      <trkpt lat="57.643874939844" lon="14.702990610563">
        <ele>306.2</ele>
        <time>2015-06-12T11:57:07Z</time>
      </trkpt>
      <trkpt lat="57.643857086397" lon="14.70283998782">
        <ele>305.8</ele>
        <time>2015-06-12T11:57:08Z</time>
      </trkpt>
      <trkpt lat="57.643838646217" lon="14.702698920443">
        <ele>305.2</ele>
        <time>2015-06-12T11:57:09Z</time>
      </trkpt>
      <trkpt lat="57.643815344535" lon="14.702553745935">
        <ele>304.6</ele>
        <time>2015-06-12T11:57:10Z</time>
      </trkpt>
      <trkpt lat="57.643786343161" lon="14.702395579482">
        <ele>304.2</ele>
        <time>2015-06-12T11:57:11Z</time>
      </trkpt>
      <trkpt lat="57.643771674836" lon="14.702261720539">
        <ele>304</ele>
        <time>2015-06-12T11:57:12Z</time>
      </trkpt>
      <trkpt lat="57.643793300138" lon="14.702153677848">
        <ele>303.8</ele>
        <time>2015-06-12T11:57:13Z</time>
      </trkpt>
      <trkpt lat="57.643843004805" lon="14.702106823027">
        <ele>303.6</ele>
        <time>2015-06-12T11:57:14Z</time>
      </trkpt>
      <trkpt lat="57.643905114684" lon="14.702074552712">
        <ele>303.4</ele>
        <time>2015-06-12T11:57:15Z</time>
      </trkpt>
      <trkpt lat="57.643964374717" lon="14.702043539682">
        <ele>303.2</ele>
        <time>2015-06-12T11:57:16Z</time>
      </trkpt>
      <trkpt lat="57.644033776849" lon="14.702004480028">
        <ele>303.2</ele>
        <time>2015-06-12T11:57:17Z</time>
      </trkpt>
      <trkpt lat="57.644100664411" lon="14.701967599668">
        <ele>303</ele>
        <time>2015-06-12T11:57:18Z</time>
      </trkpt>
      <trkpt lat="57.644164869765" lon="14.701934239706">
        <ele>302.8</ele>
        <time>2015-06-12T11:57:19Z</time>
      </trkpt>
      <trkpt lat="57.644238462847" lon="14.701892581663">
        <ele>302.8</ele>
        <time>2015-06-12T11:57:20Z</time>
      </trkpt>
      <trkpt lat="57.644310044273" lon="14.701855785122">
        <ele>302.6</ele>
        <time>2015-06-12T11:57:21Z</time>
      </trkpt>
      <trkpt lat="57.64437651274" lon="14.701821419332">
        <ele>302.4</ele>
        <time>2015-06-12T11:57:22Z</time>
      </trkpt>
      <trkpt lat="57.644456224609" lon="14.701775067425">
        <ele>302.4</ele>
        <time>2015-06-12T11:57:23Z</time>
      </trkpt>
      <trkpt lat="57.644524788551" lon="14.701738857617">
        <ele>302.2</ele>
        <time>2015-06-12T11:57:24Z</time>
      </trkpt>
      <trkpt lat="57.644599387461" lon="14.701696948117">
        <ele>302.2</ele>
        <time>2015-06-12T11:57:25Z</time>
      </trkpt>
      <trkpt lat="57.64466987924" lon="14.701678759394">
        <ele>302</ele>
        <time>2015-06-12T11:57:26Z</time>
      </trkpt>
      <trkpt lat="57.644740790114" lon="14.701668114381">
        <ele>301.8</ele>
        <time>2015-06-12T11:57:27Z</time>
      </trkpt>
      <trkpt lat="57.644805079287" lon="14.70162964146">
        <ele>301.8</ele>
        <time>2015-06-12T11:57:28Z</time>
      </trkpt>
      <trkpt lat="57.644864087863" lon="14.701551522152">
        <ele>301.8</ele>
        <time>2015-06-12T11:57:29Z</time>
      </trkpt>
      <trkpt lat="57.644918067299" lon="14.701458147786">
        <ele>301.8</ele>
        <time>2015-06-12T11:57:30Z</time>
      </trkpt>
      <trkpt lat="57.644966849957" lon="14.701376843356">
        <ele>301.8</ele>
        <time>2015-06-12T11:57:31Z</time>
      </trkpt>
      <trkpt lat="57.645018063366" lon="14.701304926654">
        <ele>301.8</ele>
        <time>2015-06-12T11:57:32Z</time>
      </trkpt>
      <trkpt lat="57.64505963759" lon="14.701219012179">
        <ele>301.6</ele>
        <time>2015-06-12T11:57:33Z</time>
      </trkpt>
      <trkpt lat="57.645075647019" lon="14.701147933667">
        <ele>301.6</ele>
        <time>2015-06-12T11:57:34Z</time>
      </trkpt>
      <trkpt lat="57.645080257064" lon="14.701109460746">
        <ele>301.4</ele>
        <time>2015-06-12T11:57:35Z</time>
      </trkpt>
      <trkpt lat="57.64508059234" lon="14.70110325814">
        <ele>301.4</ele>
        <time>2015-06-12T11:57:36Z</time>
      </trkpt>
      <trkpt lat="57.645080173245" lon="14.701098312819">
        <ele>301.6</ele>
        <time>2015-06-12T11:57:37Z</time>
      </trkpt>
      <trkpt lat="57.645074138277" lon="14.701107113814">
        <ele>301.6</ele>
        <time>2015-06-12T11:57:38Z</time>
      </trkpt>
      <trkpt lat="57.645063493264" lon="14.701113400239">
        <ele>301.8</ele>
        <time>2015-06-12T11:57:39Z</time>
      </trkpt>
      <trkpt lat="57.645051004233" lon="14.701102839045">
        <ele>302</ele>
        <time>2015-06-12T11:57:40Z</time>
      </trkpt>
      <trkpt lat="57.645037593193" lon="14.701088086901">
        <ele>302.2</ele>
        <time>2015-06-12T11:57:41Z</time>
      </trkpt>
      <trkpt lat="57.645044801627" lon="14.701048524333">
        <ele>302.2</ele>
        <time>2015-06-12T11:57:42Z</time>
      </trkpt>
      <trkpt lat="57.645044382532" lon="14.70102782104">
        <ele>302.4</ele>
        <time>2015-06-12T11:57:43Z</time>
      </trkpt>
      <trkpt lat="57.645046310369" lon="14.701019103864">
        <ele>302.4</ele>
        <time>2015-06-12T11:57:44Z</time>
      </trkpt>
      <trkpt lat="57.645051926242" lon="14.700991611232">
        <ele>302.2</ele>
        <time>2015-06-12T11:57:45Z</time>
      </trkpt>
      <trkpt lat="57.645051171871" lon="14.700974595975">
        <ele>302.2</ele>
        <time>2015-06-12T11:57:46Z</time>
      </trkpt>
      <trkpt lat="57.645046058912" lon="14.700941319832">
        <ele>302.2</ele>
        <time>2015-06-12T11:57:47Z</time>
      </trkpt>
      <trkpt lat="57.645035581537" lon="14.700901421988">
        <ele>302.2</ele>
        <time>2015-06-12T11:57:48Z</time>
      </trkpt>
      <trkpt lat="57.645022841049" lon="14.700851549683">
        <ele>302.4</ele>
        <time>2015-06-12T11:57:49Z</time>
      </trkpt>
      <trkpt lat="57.645008340362" lon="14.700777872782">
        <ele>302.6</ele>
        <time>2015-06-12T11:57:50Z</time>
      </trkpt>
      <trkpt lat="57.644993336761" lon="14.700687599719">
        <ele>302.6</ele>
        <time>2015-06-12T11:57:51Z</time>
      </trkpt>
      <trkpt lat="57.644978165522" lon="14.700592046059">
        <ele>302.8</ele>
        <time>2015-06-12T11:57:52Z</time>
      </trkpt>
      <trkpt lat="57.64495654022" lon="14.700479141866">
        <ele>302.8</ele>
        <time>2015-06-12T11:57:53Z</time>
      </trkpt>
      <trkpt lat="57.644937932402" lon="14.700374451935">
        <ele>302.6</ele>
        <time>2015-06-12T11:57:54Z</time>
      </trkpt>
      <trkpt lat="57.644915888005" lon="14.700259619905">
        <ele>302.8</ele>
        <time>2015-06-12T11:57:55Z</time>
      </trkpt>
      <trkpt lat="57.644894011246" lon="14.700150068472">
        <ele>303</ele>
        <time>2015-06-12T11:57:56Z</time>
      </trkpt>
      <trkpt lat="57.644870290469" lon="14.700038589202">
        <ele>303</ele>
        <time>2015-06-12T11:57:57Z</time>
      </trkpt>
      <trkpt lat="57.644840450905" lon="14.699936246203">
        <ele>303.2</ele>
        <time>2015-06-12T11:57:58Z</time>
      </trkpt>
      <trkpt lat="57.644804660192" lon="14.699828622607">
        <ele>303.6</ele>
        <time>2015-06-12T11:57:59Z</time>
      </trkpt>
      <trkpt lat="57.644766187271" lon="14.699715802233">
        <ele>303.8</ele>
        <time>2015-06-12T11:58:00Z</time>
      </trkpt>
      <trkpt lat="57.644725618875" lon="14.699611615216">
        <ele>304.2</ele>
        <time>2015-06-12T11:58:01Z</time>
      </trkpt>
      <trkpt lat="57.644682703547" lon="14.699508769303">
        <ele>304.4</ele>
        <time>2015-06-12T11:58:02Z</time>
      </trkpt>
      <trkpt lat="57.64463718983" lon="14.699404833743">
        <ele>304.6</ele>
        <time>2015-06-12T11:58:03Z</time>
      </trkpt>
      <trkpt lat="57.644593939226" lon="14.69931456068">
        <ele>305</ele>
        <time>2015-06-12T11:58:04Z</time>
      </trkpt>
      <trkpt lat="57.644543983102" lon="14.699204590152">
        <ele>305.2</ele>
        <time>2015-06-12T11:58:05Z</time>
      </trkpt>
      <trkpt lat="57.644496709186" lon="14.699106773379">
        <ele>305.2</ele>
        <time>2015-06-12T11:58:06Z</time>
      </trkpt>
      <trkpt lat="57.644445914872" lon="14.69901784142">
        <ele>305.4</ele>
        <time>2015-06-12T11:58:07Z</time>
      </trkpt>
      <trkpt lat="57.644390929608" lon="14.698922958312">
        <ele>305.4</ele>
        <time>2015-06-12T11:58:08Z</time>
      </trkpt>
      <trkpt lat="57.644339967656" lon="14.698831427964">
        <ele>305.8</ele>
        <time>2015-06-12T11:58:09Z</time>
      </trkpt>
      <trkpt lat="57.644288670428" lon="14.698734365562">
        <ele>306</ele>
        <time>2015-06-12T11:58:10Z</time>
      </trkpt>
      <trkpt lat="57.644234271897" lon="14.698632944572">
        <ele>306.4</ele>
        <time>2015-06-12T11:58:11Z</time>
      </trkpt>
      <trkpt lat="57.64418121447" lon="14.698529763383">
        <ele>306.6</ele>
        <time>2015-06-12T11:58:12Z</time>
      </trkpt>
      <trkpt lat="57.644129498147" lon="14.698421133959">
        <ele>307</ele>
        <time>2015-06-12T11:58:13Z</time>
      </trkpt>
      <trkpt lat="57.644090438493" lon="14.698310157603">
        <ele>307</ele>
        <time>2015-06-12T11:58:14Z</time>
      </trkpt>
      <trkpt lat="57.644049451002" lon="14.698181579257">
        <ele>307.2</ele>
        <time>2015-06-12T11:58:15Z</time>
      </trkpt>
      <trkpt lat="57.6440194438" lon="14.698060041707">
        <ele>307.4</ele>
        <time>2015-06-12T11:58:16Z</time>
      </trkpt>
      <trkpt lat="57.643993627548" lon="14.697921824176">
        <ele>307.6</ele>
        <time>2015-06-12T11:58:17Z</time>
      </trkpt>
      <trkpt lat="57.643973678626" lon="14.697784612473">
        <ele>307.4</ele>
        <time>2015-06-12T11:58:18Z</time>
      </trkpt>
      <trkpt lat="57.643959429396" lon="14.697653854833">
        <ele>307.4</ele>
        <time>2015-06-12T11:58:19Z</time>
      </trkpt>
      <trkpt lat="57.643950125487" lon="14.697507674497">
        <ele>307.2</ele>
        <time>2015-06-12T11:58:20Z</time>
      </trkpt>
      <trkpt lat="57.643950125487" lon="14.697368702595">
        <ele>307.2</ele>
        <time>2015-06-12T11:58:21Z</time>
      </trkpt>
      <trkpt lat="57.643954316437" lon="14.697239034602">
        <ele>307</ele>
        <time>2015-06-12T11:58:22Z</time>
      </trkpt>
      <trkpt lat="57.64396160869" lon="14.69709251899">
        <ele>306.8</ele>
        <time>2015-06-12T11:58:23Z</time>
      </trkpt>
      <trkpt lat="57.643973091893" lon="14.696959917332">
        <ele>306.4</ele>
        <time>2015-06-12T11:58:24Z</time>
      </trkpt>
      <trkpt lat="57.643989520417" lon="14.696812395892">
        <ele>306</ele>
        <time>2015-06-12T11:58:25Z</time>
      </trkpt>
      <trkpt lat="57.644004943113" lon="14.696657163104">
        <ele>305.8</ele>
        <time>2015-06-12T11:58:26Z</time>
      </trkpt>
      <trkpt lat="57.644018186515" lon="14.696504025791">
        <ele>305.2</ele>
        <time>2015-06-12T11:58:27Z</time>
      </trkpt>
      <trkpt lat="57.644026568415" lon="14.696397827118">
        <ele>305</ele>
        <time>2015-06-12T11:58:28Z</time>
      </trkpt>
      <trkpt lat="57.644038386894" lon="14.696262543252">
        <ele>304.8</ele>
        <time>2015-06-12T11:58:29Z</time>
      </trkpt>
      <trkpt lat="57.644052803762" lon="14.69612105678">
        <ele>304.6</ele>
        <time>2015-06-12T11:58:30Z</time>
      </trkpt>
      <trkpt lat="57.644062023852" lon="14.69598778457">
        <ele>304.4</ele>
        <time>2015-06-12T11:58:31Z</time>
      </trkpt>
      <trkpt lat="57.644071579218" lon="14.695862642803">
        <ele>304.2</ele>
        <time>2015-06-12T11:58:32Z</time>
      </trkpt>
      <trkpt lat="57.644077446548" lon="14.695733729181">
        <ele>304.2</ele>
        <time>2015-06-12T11:58:33Z</time>
      </trkpt>
      <trkpt lat="57.644080715489" lon="14.695616298762">
        <ele>304.2</ele>
        <time>2015-06-12T11:58:34Z</time>
      </trkpt>
      <trkpt lat="57.644082559507" lon="14.695474560833">
        <ele>304.2</ele>
        <time>2015-06-12T11:58:35Z</time>
      </trkpt>
      <trkpt lat="57.644079542023" lon="14.695339947519">
        <ele>304.4</ele>
        <time>2015-06-12T11:58:36Z</time>
      </trkpt>
      <trkpt lat="57.644072836503" lon="14.695205082748">
        <ele>304.4</ele>
        <time>2015-06-12T11:58:37Z</time>
      </trkpt>
      <trkpt lat="57.644066550078" lon="14.695069463606">
        <ele>304.4</ele>
        <time>2015-06-12T11:58:38Z</time>
      </trkpt>
      <trkpt lat="57.64405548597" lon="14.694936359034">
        <ele>304.6</ele>
        <time>2015-06-12T11:58:39Z</time>
      </trkpt>
      <trkpt lat="57.644041152921" lon="14.694819934443">
        <ele>304.6</ele>
        <time>2015-06-12T11:58:40Z</time>
      </trkpt>
      <trkpt lat="57.644021623094" lon="14.694686662233">
        <ele>304.6</ele>
        <time>2015-06-12T11:58:41Z</time>
      </trkpt>
      <trkpt lat="57.643998405231" lon="14.694545594856">
        <ele>304.6</ele>
        <time>2015-06-12T11:58:42Z</time>
      </trkpt>
      <trkpt lat="57.643973762445" lon="14.694423470573">
        <ele>304.6</ele>
        <time>2015-06-12T11:58:43Z</time>
      </trkpt>
      <trkpt lat="57.643950209306" lon="14.694318277728">
        <ele>304.6</ele>
        <time>2015-06-12T11:58:44Z</time>
      </trkpt>
      <trkpt lat="57.643920285923" lon="14.694188609735">
        <ele>304.4</ele>
        <time>2015-06-12T11:58:45Z</time>
      </trkpt>
      <trkpt lat="57.643884662848" lon="14.694055672801">
        <ele>304.2</ele>
        <time>2015-06-12T11:58:46Z</time>
      </trkpt>
      <trkpt lat="57.64385096761" lon="14.693944612626">
        <ele>304.2</ele>
        <time>2015-06-12T11:58:47Z</time>
      </trkpt>
      <trkpt lat="57.643815679811" lon="14.693831876071">
        <ele>304</ele>
        <time>2015-06-12T11:58:48Z</time>
      </trkpt>
      <trkpt lat="57.643781230202" lon="14.693726850864">
        <ele>304</ele>
        <time>2015-06-12T11:58:49Z</time>
      </trkpt>
      <trkpt lat="57.643736303218" lon="14.693595925586">
        <ele>303.8</ele>
        <time>2015-06-12T11:58:50Z</time>
      </trkpt>
      <trkpt lat="57.64369757884" lon="14.693485116868">
        <ele>303.8</ele>
        <time>2015-06-12T11:58:51Z</time>
      </trkpt>
      <trkpt lat="57.643659525014" lon="14.693376319806">
        <ele>303.6</ele>
        <time>2015-06-12T11:58:52Z</time>
      </trkpt>
      <trkpt lat="57.643631110373" lon="14.693277161929">
        <ele>304</ele>
        <time>2015-06-12T11:58:53Z</time>
      </trkpt>
      <trkpt lat="57.643630104545" lon="14.693146571927">
        <ele>304</ele>
        <time>2015-06-12T11:58:54Z</time>
      </trkpt>
      <trkpt lat="57.643670924398" lon="14.693043558376">
        <ele>304</ele>
        <time>2015-06-12T11:58:55Z</time>
      </trkpt>
      <trkpt lat="57.643731441716" lon="14.692994356623">
        <ele>303.6</ele>
        <time>2015-06-12T11:58:56Z</time>
      </trkpt>
      <trkpt lat="57.643797826364" lon="14.692952866218">
        <ele>303.4</ele>
        <time>2015-06-12T11:58:57Z</time>
      </trkpt>
      <trkpt lat="57.643864713926" lon="14.692902993913">
        <ele>303.2</ele>
        <time>2015-06-12T11:58:58Z</time>
      </trkpt>
      <trkpt lat="57.643928751642" lon="14.69285463035">
        <ele>303.2</ele>
        <time>2015-06-12T11:58:59Z</time>
      </trkpt>
      <trkpt lat="57.644006451855" lon="14.692795537955">
        <ele>303.2</ele>
        <time>2015-06-12T11:59:00Z</time>
      </trkpt>
      <trkpt lat="57.644071495399" lon="14.692736780836">
        <ele>302.8</ele>
        <time>2015-06-12T11:59:01Z</time>
      </trkpt>
      <trkpt lat="57.644143412101" lon="14.692676598794">
        <ele>302.8</ele>
        <time>2015-06-12T11:59:02Z</time>
      </trkpt>
      <trkpt lat="57.644212478957" lon="14.6926157462">
        <ele>302.8</ele>
        <time>2015-06-12T11:59:03Z</time>
      </trkpt>
      <trkpt lat="57.644282719279" lon="14.692563862239">
        <ele>302.8</ele>
        <time>2015-06-12T11:59:04Z</time>
      </trkpt>
      <trkpt lat="57.644352875782" lon="14.69251348702">
        <ele>302.8</ele>
        <time>2015-06-12T11:59:05Z</time>
      </trkpt>
      <trkpt lat="57.644427139416" lon="14.692459759041">
        <ele>302.8</ele>
        <time>2015-06-12T11:59:06Z</time>
      </trkpt>
      <trkpt lat="57.644500061946" lon="14.692406282519">
        <ele>302.8</ele>
        <time>2015-06-12T11:59:07Z</time>
      </trkpt>
      <trkpt lat="57.644572984476" lon="14.69235339273">
        <ele>302.6</ele>
        <time>2015-06-12T11:59:08Z</time>
      </trkpt>
      <trkpt lat="57.644642135151" lon="14.692304610072">
        <ele>302.6</ele>
        <time>2015-06-12T11:59:09Z</time>
      </trkpt>
      <trkpt lat="57.644718578079" lon="14.6922469426">
        <ele>302.4</ele>
        <time>2015-06-12T11:59:10Z</time>
      </trkpt>
      <trkpt lat="57.64478806403" lon="14.692194807182">
        <ele>302.4</ele>
        <time>2015-06-12T11:59:11Z</time>
      </trkpt>
      <trkpt lat="57.644866267157" lon="14.692137474986">
        <ele>302.4</ele>
        <time>2015-06-12T11:59:12Z</time>
      </trkpt>
      <trkpt lat="57.644940195515" lon="14.692082154446">
        <ele>302.2</ele>
        <time>2015-06-12T11:59:13Z</time>
      </trkpt>
      <trkpt lat="57.645009178552" lon="14.692030270485">
        <ele>302.2</ele>
        <time>2015-06-12T11:59:14Z</time>
      </trkpt>
      <trkpt lat="57.645086124394" lon="14.691971681004">
        <ele>302.2</ele>
        <time>2015-06-12T11:59:15Z</time>
      </trkpt>
      <trkpt lat="57.645156951449" lon="14.691912923885">
        <ele>302.2</ele>
        <time>2015-06-12T11:59:16Z</time>
      </trkpt>
      <trkpt lat="57.645209757419" lon="14.691869924738">
        <ele>302.2</ele>
        <time>2015-06-12T11:59:17Z</time>
      </trkpt>
      <trkpt lat="57.645294163152" lon="14.691800354968">
        <ele>302.2</ele>
        <time>2015-06-12T11:59:18Z</time>
      </trkpt>
      <trkpt lat="57.645360128705" lon="14.691746207894">
        <ele>302.2</ele>
        <time>2015-06-12T11:59:19Z</time>
      </trkpt>
      <trkpt lat="57.645431207217" lon="14.691686025852">
        <ele>302.2</ele>
        <time>2015-06-12T11:59:20Z</time>
      </trkpt>
      <trkpt lat="57.64549801096" lon="14.691626514362">
        <ele>302.2</ele>
        <time>2015-06-12T11:59:21Z</time>
      </trkpt>
      <trkpt lat="57.645564814703" lon="14.691566080863">
        <ele>302.2</ele>
        <time>2015-06-12T11:59:22Z</time>
      </trkpt>
      <trkpt lat="57.645626589306" lon="14.691511514694">
        <ele>302</ele>
        <time>2015-06-12T11:59:23Z</time>
      </trkpt>
      <trkpt lat="57.645692890135" lon="14.691450410643">
        <ele>302</ele>
        <time>2015-06-12T11:59:24Z</time>
      </trkpt>
      <trkpt lat="57.645761286439" lon="14.691386792022">
        <ele>302</ele>
        <time>2015-06-12T11:59:25Z</time>
      </trkpt>
      <trkpt lat="57.645824988879" lon="14.691326693799">
        <ele>302.2</ele>
        <time>2015-06-12T11:59:26Z</time>
      </trkpt>
      <trkpt lat="57.645888858957" lon="14.691266847033">
        <ele>302.2</ele>
        <time>2015-06-12T11:59:27Z</time>
      </trkpt>
      <trkpt lat="57.64595314813" lon="14.691207251724">
        <ele>302</ele>
        <time>2015-06-12T11:59:28Z</time>
      </trkpt>
      <trkpt lat="57.646008133394" lon="14.691153691383">
        <ele>302</ele>
        <time>2015-06-12T11:59:29Z</time>
      </trkpt>
      <trkpt lat="57.646078792811" lon="14.691082612871">
        <ele>302</ele>
        <time>2015-06-12T11:59:30Z</time>
      </trkpt>
      <trkpt lat="57.646142076156" lon="14.691023352838">
        <ele>302.2</ele>
        <time>2015-06-12T11:59:31Z</time>
      </trkpt>
      <trkpt lat="57.646204521311" lon="14.69096535009">
        <ele>302.2</ele>
        <time>2015-06-12T11:59:32Z</time>
      </trkpt>
      <trkpt lat="57.646266212095" lon="14.690902234383">
        <ele>302.2</ele>
        <time>2015-06-12T11:59:33Z</time>
      </trkpt>
      <trkpt lat="57.646324131024" lon="14.690842722893">
        <ele>302.2</ele>
        <time>2015-06-12T11:59:34Z</time>
      </trkpt>
      <trkpt lat="57.646385486532" lon="14.690781451204">
        <ele>302</ele>
        <time>2015-06-12T11:59:35Z</time>
      </trkpt>
      <trkpt lat="57.646452457913" lon="14.690710288873">
        <ele>302</ele>
        <time>2015-06-12T11:59:36Z</time>
      </trkpt>
      <trkpt lat="57.646513729602" lon="14.690642898397">
        <ele>302</ele>
        <time>2015-06-12T11:59:37Z</time>
      </trkpt>
      <trkpt lat="57.646573827825" lon="14.69057391536">
        <ele>302</ele>
        <time>2015-06-12T11:59:38Z</time>
      </trkpt>
      <trkpt lat="57.646630154193" lon="14.690509626187">
        <ele>302</ele>
        <time>2015-06-12T11:59:39Z</time>
      </trkpt>
      <trkpt lat="57.64669243171" lon="14.690439385865">
        <ele>302.2</ele>
        <time>2015-06-12T11:59:40Z</time>
      </trkpt>
      <trkpt lat="57.646747836069" lon="14.690377611262">
        <ele>302.2</ele>
        <time>2015-06-12T11:59:41Z</time>
      </trkpt>
      <trkpt lat="57.646809107758" lon="14.690306113655">
        <ele>302.2</ele>
        <time>2015-06-12T11:59:42Z</time>
      </trkpt>
      <trkpt lat="57.646861326995" lon="14.690243249405">
        <ele>302.2</ele>
        <time>2015-06-12T11:59:43Z</time>
      </trkpt>
      <trkpt lat="57.646902230667" lon="14.690203770656">
        <ele>302.2</ele>
        <time>2015-06-12T11:59:44Z</time>
      </trkpt>
      <trkpt lat="57.646933243697" lon="14.690178373499">
        <ele>302.2</ele>
        <time>2015-06-12T11:59:45Z</time>
      </trkpt>
      <trkpt lat="57.646956377741" lon="14.690160100957">
        <ele>302.2</ele>
        <time>2015-06-12T11:59:46Z</time>
      </trkpt>
      <trkpt lat="57.646977835405" lon="14.690139900578">
        <ele>302.2</ele>
        <time>2015-06-12T11:59:47Z</time>
      </trkpt>
      <trkpt lat="57.647014129032" lon="14.690127327728">
        <ele>302</ele>
        <time>2015-06-12T11:59:48Z</time>
      </trkpt>
      <trkpt lat="57.647052601953" lon="14.690113246136">
        <ele>302</ele>
        <time>2015-06-12T11:59:49Z</time>
      </trkpt>
      <trkpt lat="57.647096774566" lon="14.690072174826">
        <ele>302</ele>
        <time>2015-06-12T11:59:50Z</time>
      </trkpt>
      <trkpt lat="57.647134828392" lon="14.690011406051">
        <ele>302.2</ele>
        <time>2015-06-12T11:59:51Z</time>
      </trkpt>
      <trkpt lat="57.647171122019" lon="14.689945608136">
        <ele>302.4</ele>
        <time>2015-06-12T11:59:52Z</time>
      </trkpt>
      <trkpt lat="57.647206912732" lon="14.68988240861">
        <ele>302.4</ele>
        <time>2015-06-12T11:59:53Z</time>
      </trkpt>
      <trkpt lat="57.64724563711" lon="14.689808731709">
        <ele>302.4</ele>
        <time>2015-06-12T11:59:54Z</time>
      </trkpt>
      <trkpt lat="57.647292491931" lon="14.689733797523">
        <ele>302.6</ele>
        <time>2015-06-12T11:59:55Z</time>
      </trkpt>
      <trkpt lat="57.647340436399" lon="14.689669843626">
        <ele>302.6</ele>
        <time>2015-06-12T11:59:56Z</time>
      </trkpt>
      <trkpt lat="57.647390811618" lon="14.689612259973">
        <ele>302.8</ele>
        <time>2015-06-12T11:59:57Z</time>
      </trkpt>
      <trkpt lat="57.647441522113" lon="14.689554173406">
        <ele>303</ele>
        <time>2015-06-12T11:59:58Z</time>
      </trkpt>
      <trkpt lat="57.647485443269" lon="14.689501618893">
        <ele>303.2</ele>
        <time>2015-06-12T11:59:59Z</time>
      </trkpt>
      <trkpt lat="57.647542524008" lon="14.68943313877">
        <ele>303.4</ele>
        <time>2015-06-12T12:00:00Z</time>
      </trkpt>
      <trkpt lat="57.647594994702" lon="14.689370442158">
        <ele>303.4</ele>
        <time>2015-06-12T12:00:01Z</time>
      </trkpt>
      <trkpt lat="57.647646124292" lon="14.689309170469">
        <ele>303.6</ele>
        <time>2015-06-12T12:00:02Z</time>
      </trkpt>
      <trkpt lat="57.647700187547" lon="14.689245887124">
        <ele>303.6</ele>
        <time>2015-06-12T12:00:03Z</time>
      </trkpt>
      <trkpt lat="57.647752155327" lon="14.689183441969">
        <ele>303.8</ele>
        <time>2015-06-12T12:00:04Z</time>
      </trkpt>
      <trkpt lat="57.647806302401" lon="14.689114039837">
        <ele>303.8</ele>
        <time>2015-06-12T12:00:05Z</time>
      </trkpt>
      <trkpt lat="57.647865730072" lon="14.689039021832">
        <ele>303.8</ele>
        <time>2015-06-12T12:00:06Z</time>
      </trkpt>
      <trkpt lat="57.647922307897" lon="14.688973223917">
        <ele>303.8</ele>
        <time>2015-06-12T12:00:07Z</time>
      </trkpt>
      <trkpt lat="57.647979807731" lon="14.688904492337">
        <ele>303.8</ele>
        <time>2015-06-12T12:00:08Z</time>
      </trkpt>
      <trkpt lat="57.648035463547" lon="14.688838526784">
        <ele>303.8</ele>
        <time>2015-06-12T12:00:09Z</time>
      </trkpt>
      <trkpt lat="57.64809891453" lon="14.68876342496">
        <ele>303.8</ele>
        <time>2015-06-12T12:00:10Z</time>
      </trkpt>
      <trkpt lat="57.64815423507" lon="14.68869888433">
        <ele>303.8</ele>
        <time>2015-06-12T12:00:11Z</time>
      </trkpt>
      <trkpt lat="57.648219110976" lon="14.688621100298">
        <ele>303.8</ele>
        <time>2015-06-12T12:00:12Z</time>
      </trkpt>
      <trkpt lat="57.648281472312" lon="14.688542729533">
        <ele>303.8</ele>
        <time>2015-06-12T12:00:13Z</time>
      </trkpt>
      <trkpt lat="57.648341402897" lon="14.688468717356">
        <ele>303.8</ele>
        <time>2015-06-12T12:00:14Z</time>
      </trkpt>
      <trkpt lat="57.648406865536" lon="14.688390933324">
        <ele>303.8</ele>
        <time>2015-06-12T12:00:15Z</time>
      </trkpt>
      <trkpt lat="57.648469813605" lon="14.688308371609">
        <ele>304</ele>
        <time>2015-06-12T12:00:16Z</time>
      </trkpt>
      <trkpt lat="57.648531169113" lon="14.688234191794">
        <ele>304</ele>
        <time>2015-06-12T12:00:17Z</time>
      </trkpt>
      <trkpt lat="57.648597553761" lon="14.688151713898">
        <ele>304</ele>
        <time>2015-06-12T12:00:18Z</time>
      </trkpt>
      <trkpt lat="57.648660418011" lon="14.688069822735">
        <ele>304.2</ele>
        <time>2015-06-12T12:00:19Z</time>
      </trkpt>
      <trkpt lat="57.648722108795" lon="14.687998241309">
        <ele>304</ele>
        <time>2015-06-12T12:00:20Z</time>
      </trkpt>
      <trkpt lat="57.648788828719" lon="14.687916266327">
        <ele>304</ele>
        <time>2015-06-12T12:00:21Z</time>
      </trkpt>
      <trkpt lat="57.648854626634" lon="14.687836722096">
        <ele>304</ele>
        <time>2015-06-12T12:00:22Z</time>
      </trkpt>
      <trkpt lat="57.648917909979" lon="14.687763045195">
        <ele>304</ele>
        <time>2015-06-12T12:00:23Z</time>
      </trkpt>
      <trkpt lat="57.648981360962" lon="14.687690457941">
        <ele>304</ele>
        <time>2015-06-12T12:00:24Z</time>
      </trkpt>
      <trkpt lat="57.649048667619" lon="14.687610746072">
        <ele>303.8</ele>
        <time>2015-06-12T12:00:25Z</time>
      </trkpt>
      <trkpt lat="57.649116896285" lon="14.68752625652">
        <ele>303.8</ele>
        <time>2015-06-12T12:00:26Z</time>
      </trkpt>
      <trkpt lat="57.649183951485" lon="14.687446544651">
        <ele>303.8</ele>
        <time>2015-06-12T12:00:27Z</time>
      </trkpt>
      <trkpt lat="57.649249917038" lon="14.687366832782">
        <ele>303.8</ele>
        <time>2015-06-12T12:00:28Z</time>
      </trkpt>
      <trkpt lat="57.649308757976" lon="14.687291730958">
        <ele>303.8</ele>
        <time>2015-06-12T12:00:29Z</time>
      </trkpt>
      <trkpt lat="57.649384446533" lon="14.687192070167">
        <ele>304</ele>
        <time>2015-06-12T12:00:30Z</time>
      </trkpt>
      <trkpt lat="57.649454100122" lon="14.68711051428">
        <ele>303.8</ele>
        <time>2015-06-12T12:00:31Z</time>
      </trkpt>
      <trkpt lat="57.649521993512" lon="14.687024515986">
        <ele>303.8</ele>
        <time>2015-06-12T12:00:32Z</time>
      </trkpt>
      <trkpt lat="57.649590138359" lon="14.686938182416">
        <ele>303.6</ele>
        <time>2015-06-12T12:00:33Z</time>
      </trkpt>
      <trkpt lat="57.649654427532" lon="14.686855872158">
        <ele>303.6</ele>
        <time>2015-06-12T12:00:34Z</time>
      </trkpt>
      <trkpt lat="57.649722404741" lon="14.686771131149">
        <ele>303.6</ele>
        <time>2015-06-12T12:00:35Z</time>
      </trkpt>
      <trkpt lat="57.649722572379" lon="14.68677104733">
        <ele>303.6</ele>
        <time>2015-06-12T12:00:36Z</time>
      </trkpt>
      <trkpt lat="57.649861209005" lon="14.686604750434">
        <ele>303.4</ele>
        <time>2015-06-12T12:00:37Z</time>
      </trkpt>
      <trkpt lat="57.649930778775" lon="14.686519674149">
        <ele>303.4</ele>
        <time>2015-06-12T12:00:38Z</time>
      </trkpt>
      <trkpt lat="57.649993894482" lon="14.686442812126">
        <ele>303.2</ele>
        <time>2015-06-12T12:00:39Z</time>
      </trkpt>
      <trkpt lat="57.650065140632" lon="14.68635698147">
        <ele>303.2</ele>
        <time>2015-06-12T12:00:40Z</time>
      </trkpt>
      <trkpt lat="57.650127418149" lon="14.686282717836">
        <ele>303.2</ele>
        <time>2015-06-12T12:00:41Z</time>
      </trkpt>
      <trkpt lat="57.650199921584" lon="14.686195126981">
        <ele>303</ele>
        <time>2015-06-12T12:00:42Z</time>
      </trkpt>
      <trkpt lat="57.650265048947" lon="14.686114074008">
        <ele>302.8</ele>
        <time>2015-06-12T12:00:43Z</time>
      </trkpt>
      <trkpt lat="57.650328416111" lon="14.686038217813">
        <ele>302.6</ele>
        <time>2015-06-12T12:00:44Z</time>
      </trkpt>
      <trkpt lat="57.650400416632" lon="14.685953644442">
        <ele>302.2</ele>
        <time>2015-06-12T12:00:45Z</time>
      </trkpt>
      <trkpt lat="57.650468310022" lon="14.685871418003">
        <ele>302</ele>
        <time>2015-06-12T12:00:46Z</time>
      </trkpt>
      <trkpt lat="57.650530922815" lon="14.685795813265">
        <ele>301.8</ele>
        <time>2015-06-12T12:00:47Z</time>
      </trkpt>
      <trkpt lat="57.650605270268" lon="14.685702774175">
        <ele>301.6</ele>
        <time>2015-06-12T12:00:48Z</time>
      </trkpt>
      <trkpt lat="57.650671403459" lon="14.685621302107">
        <ele>301.4</ele>
        <time>2015-06-12T12:00:49Z</time>
      </trkpt>
      <trkpt lat="57.650746170007" lon="14.685532453967">
        <ele>301.2</ele>
        <time>2015-06-12T12:00:50Z</time>
      </trkpt>
      <trkpt lat="57.650818505804" lon="14.685448551148">
        <ele>301</ele>
        <time>2015-06-12T12:00:51Z</time>
      </trkpt>
      <trkpt lat="57.650888662307" lon="14.685368336365">
        <ele>300.8</ele>
        <time>2015-06-12T12:00:52Z</time>
      </trkpt>
      <trkpt lat="57.650958399715" lon="14.685287367211">
        <ele>300.8</ele>
        <time>2015-06-12T12:00:53Z</time>
      </trkpt>
      <trkpt lat="57.651019671404" lon="14.685214025586">
        <ele>300.8</ele>
        <time>2015-06-12T12:00:54Z</time>
      </trkpt>
      <trkpt lat="57.651094018857" lon="14.685123417247">
        <ele>301</ele>
        <time>2015-06-12T12:00:55Z</time>
      </trkpt>
      <trkpt lat="57.651159565315" lon="14.685041526084">
        <ele>301.2</ele>
        <time>2015-06-12T12:00:56Z</time>
      </trkpt>
      <trkpt lat="57.651225782325" lon="14.684964664061">
        <ele>301.2</ele>
        <time>2015-06-12T12:00:57Z</time>
      </trkpt>
      <trkpt lat="57.651290322955" lon="14.684885538925">
        <ele>301.4</ele>
        <time>2015-06-12T12:00:58Z</time>
      </trkpt>
      <trkpt lat="57.651344218572" lon="14.684817980811">
        <ele>301.4</ele>
        <time>2015-06-12T12:00:59Z</time>
      </trkpt>
      <trkpt lat="57.651415883817" lon="14.684726953377">
        <ele>301.6</ele>
        <time>2015-06-12T12:01:00Z</time>
      </trkpt>
      <trkpt lat="57.651479586257" lon="14.684651683915">
        <ele>301.8</ele>
        <time>2015-06-12T12:01:01Z</time>
      </trkpt>
      <trkpt lat="57.65154387543" lon="14.684580270127">
        <ele>301.8</ele>
        <time>2015-06-12T12:01:02Z</time>
      </trkpt>
      <trkpt lat="57.651606991137" lon="14.684505252122">
        <ele>302</ele>
        <time>2015-06-12T12:01:03Z</time>
      </trkpt>
      <trkpt lat="57.651667256998" lon="14.684434005972">
        <ele>302</ele>
        <time>2015-06-12T12:01:04Z</time>
      </trkpt>
      <trkpt lat="57.651730540343" lon="14.684358485053">
        <ele>302.2</ele>
        <time>2015-06-12T12:01:05Z</time>
      </trkpt>
      <trkpt lat="57.651780999381" lon="14.684296961907">
        <ele>302.2</ele>
        <time>2015-06-12T12:01:06Z</time>
      </trkpt>
      <trkpt lat="57.651860962707" lon="14.684203838998">
        <ele>302.2</ele>
        <time>2015-06-12T12:01:07Z</time>
      </trkpt>
      <trkpt lat="57.651924916604" lon="14.684128150441">
        <ele>302.4</ele>
        <time>2015-06-12T12:01:08Z</time>
      </trkpt>
      <trkpt lat="57.651984428094" lon="14.684058245395">
        <ele>302.4</ele>
        <time>2015-06-12T12:01:09Z</time>
      </trkpt>
      <trkpt lat="57.65205181857" lon="14.683981299553">
        <ele>302.4</ele>
        <time>2015-06-12T12:01:10Z</time>
      </trkpt>
      <trkpt lat="57.652108480214" lon="14.683915250181">
        <ele>302.4</ele>
        <time>2015-06-12T12:01:11Z</time>
      </trkpt>
      <trkpt lat="57.65217587069" lon="14.683835454493">
        <ele>302.4</ele>
        <time>2015-06-12T12:01:12Z</time>
      </trkpt>
      <trkpt lat="57.652237142379" lon="14.683760687945">
        <ele>302.4</ele>
        <time>2015-06-12T12:01:13Z</time>
      </trkpt>
      <trkpt lat="57.652295480403" lon="14.683691621089">
        <ele>302.6</ele>
        <time>2015-06-12T12:01:14Z</time>
      </trkpt>
      <trkpt lat="57.652361278318" lon="14.683616435446">
        <ele>302.6</ele>
        <time>2015-06-12T12:01:15Z</time>
      </trkpt>
      <trkpt lat="57.65242313674" lon="14.68354150126">
        <ele>302.4</ele>
        <time>2015-06-12T12:01:16Z</time>
      </trkpt>
      <trkpt lat="57.652480552755" lon="14.683472266766">
        <ele>302.6</ele>
        <time>2015-06-12T12:01:17Z</time>
      </trkpt>
      <trkpt lat="57.652548529964" lon="14.68339314163">
        <ele>302.6</ele>
        <time>2015-06-12T12:01:18Z</time>
      </trkpt>
      <trkpt lat="57.652607957635" lon="14.683321308747">
        <ele>302.6</ele>
        <time>2015-06-12T12:01:19Z</time>
      </trkpt>
      <trkpt lat="57.652673923188" lon="14.683238830851">
        <ele>302.4</ele>
        <time>2015-06-12T12:01:20Z</time>
      </trkpt>
      <trkpt lat="57.652736955076" lon="14.683161465914">
        <ele>302.6</ele>
        <time>2015-06-12T12:01:21Z</time>
      </trkpt>
      <trkpt lat="57.652800992792" lon="14.683086950823">
        <ele>302.6</ele>
        <time>2015-06-12T12:01:22Z</time>
      </trkpt>
      <trkpt lat="57.652861007196" lon="14.683015369397">
        <ele>302.6</ele>
        <time>2015-06-12T12:01:23Z</time>
      </trkpt>
      <trkpt lat="57.652925044912" lon="14.682935657528">
        <ele>302.6</ele>
        <time>2015-06-12T12:01:24Z</time>
      </trkpt>
      <trkpt lat="57.652992686845" lon="14.68285586184">
        <ele>302.6</ele>
        <time>2015-06-12T12:01:25Z</time>
      </trkpt>
      <trkpt lat="57.653057311294" lon="14.682782604034">
        <ele>302.6</ele>
        <time>2015-06-12T12:01:26Z</time>
      </trkpt>
      <trkpt lat="57.653120762277" lon="14.68270498764">
        <ele>302.6</ele>
        <time>2015-06-12T12:01:27Z</time>
      </trkpt>
      <trkpt lat="57.653184129441" lon="14.682628460893">
        <ele>302.6</ele>
        <time>2015-06-12T12:01:28Z</time>
      </trkpt>
      <trkpt lat="57.653246909872" lon="14.682552688517">
        <ele>302.6</ele>
        <time>2015-06-12T12:01:29Z</time>
      </trkpt>
      <trkpt lat="57.65330994176" lon="14.682478341064">
        <ele>302.4</ele>
        <time>2015-06-12T12:01:30Z</time>
      </trkpt>
      <trkpt lat="57.653377751331" lon="14.682399215928">
        <ele>302.4</ele>
        <time>2015-06-12T12:01:31Z</time>
      </trkpt>
      <trkpt lat="57.653440280305" lon="14.682321515715">
        <ele>302.4</ele>
        <time>2015-06-12T12:01:32Z</time>
      </trkpt>
      <trkpt lat="57.653504318021" lon="14.682243815502">
        <ele>302.4</ele>
        <time>2015-06-12T12:01:33Z</time>
      </trkpt>
      <trkpt lat="57.65356475152" lon="14.682171647343">
        <ele>302.2</ele>
        <time>2015-06-12T12:01:34Z</time>
      </trkpt>
      <trkpt lat="57.65362845396" lon="14.68209310894">
        <ele>302.2</ele>
        <time>2015-06-12T12:01:35Z</time>
      </trkpt>
      <trkpt lat="57.653697269359" lon="14.682008619388">
        <ele>302</ele>
        <time>2015-06-12T12:01:36Z</time>
      </trkpt>
      <trkpt lat="57.653759882152" lon="14.681924213655">
        <ele>302</ele>
        <time>2015-06-12T12:01:37Z</time>
      </trkpt>
      <trkpt lat="57.653816627615" lon="14.681826313063">
        <ele>302</ele>
        <time>2015-06-12T12:01:38Z</time>
      </trkpt>
      <trkpt lat="57.653865158816" lon="14.681723048055">
        <ele>301.8</ele>
        <time>2015-06-12T12:01:39Z</time>
      </trkpt>
      <trkpt lat="57.653916372225" lon="14.681603354523">
        <ele>301.8</ele>
        <time>2015-06-12T12:01:40Z</time>
      </trkpt>
      <trkpt lat="57.653959203734" lon="14.681494976556">
        <ele>301.6</ele>
        <time>2015-06-12T12:01:41Z</time>
      </trkpt>
      <trkpt lat="57.654007483478" lon="14.681367990771">
        <ele>301.4</ele>
        <time>2015-06-12T12:01:42Z</time>
      </trkpt>
      <trkpt lat="57.654048973883" lon="14.681247794325">
        <ele>301</ele>
        <time>2015-06-12T12:01:43Z</time>
      </trkpt>
      <trkpt lat="57.654091553935" lon="14.681137069426">
        <ele>300.8</ele>
        <time>2015-06-12T12:01:44Z</time>
      </trkpt>
      <trkpt lat="57.654140923326" lon="14.681015280419">
        <ele>300.6</ele>
        <time>2015-06-12T12:01:45Z</time>
      </trkpt>
      <trkpt lat="57.654189035432" lon="14.680902124769">
        <ele>300.2</ele>
        <time>2015-06-12T12:01:46Z</time>
      </trkpt>
      <trkpt lat="57.654234549149" lon="14.680789891128">
        <ele>299.8</ele>
        <time>2015-06-12T12:01:47Z</time>
      </trkpt>
      <trkpt lat="57.654287690395" lon="14.68065728947">
        <ele>299.4</ele>
        <time>2015-06-12T12:01:48Z</time>
      </trkpt>
      <trkpt lat="57.65433504813" lon="14.680539523775">
        <ele>299.2</ele>
        <time>2015-06-12T12:01:49Z</time>
      </trkpt>
      <trkpt lat="57.654389279023" lon="14.680408682316">
        <ele>298.8</ele>
        <time>2015-06-12T12:01:50Z</time>
      </trkpt>
      <trkpt lat="57.654442755545" lon="14.680288318232">
        <ele>298.8</ele>
        <time>2015-06-12T12:01:51Z</time>
      </trkpt>
      <trkpt lat="57.654497489352" lon="14.680168876157">
        <ele>298.6</ele>
        <time>2015-06-12T12:01:52Z</time>
      </trkpt>
      <trkpt lat="57.654551384969" lon="14.680051697195">
        <ele>298.6</ele>
        <time>2015-06-12T12:01:53Z</time>
      </trkpt>
      <trkpt lat="57.654590276985" lon="14.679967040005">
        <ele>298.4</ele>
        <time>2015-06-12T12:01:54Z</time>
      </trkpt>
      <trkpt lat="57.654656493995" lon="14.679823709515">
        <ele>298.2</ele>
        <time>2015-06-12T12:01:55Z</time>
      </trkpt>
      <trkpt lat="57.654707623585" lon="14.67971348753">
        <ele>298.2</ele>
        <time>2015-06-12T12:01:56Z</time>
      </trkpt>
      <trkpt lat="57.654758836994" lon="14.679604355192">
        <ele>298</ele>
        <time>2015-06-12T12:01:57Z</time>
      </trkpt>
      <trkpt lat="57.654809882765" lon="14.679492289189">
        <ele>298</ele>
        <time>2015-06-12T12:01:58Z</time>
      </trkpt>
      <trkpt lat="57.654854642111" lon="14.679394891511">
        <ele>297.8</ele>
        <time>2015-06-12T12:01:59Z</time>
      </trkpt>
      <trkpt lat="57.654911219936" lon="14.679270420296">
        <ele>297.6</ele>
        <time>2015-06-12T12:02:00Z</time>
      </trkpt>
      <trkpt lat="57.654962433345" lon="14.679157683741">
        <ele>297.6</ele>
        <time>2015-06-12T12:02:01Z</time>
      </trkpt>
      <trkpt lat="57.655014568763" lon="14.679045533919">
        <ele>297.4</ele>
        <time>2015-06-12T12:02:02Z</time>
      </trkpt>
      <trkpt lat="57.655066704181" lon="14.678932629726">
        <ele>297.4</ele>
        <time>2015-06-12T12:02:03Z</time>
      </trkpt>
      <trkpt lat="57.655115738296" lon="14.678824503216">
        <ele>297.6</ele>
        <time>2015-06-12T12:02:04Z</time>
      </trkpt>
      <trkpt lat="57.655168125171" lon="14.678707827168">
        <ele>297.6</ele>
        <time>2015-06-12T12:02:05Z</time>
      </trkpt>
      <trkpt lat="57.65522436772" lon="14.678584529419">
        <ele>297.6</ele>
        <time>2015-06-12T12:02:06Z</time>
      </trkpt>
      <trkpt lat="57.655277006052" lon="14.678469697389">
        <ele>297.6</ele>
        <time>2015-06-12T12:02:07Z</time>
      </trkpt>
      <trkpt lat="57.655329560565" lon="14.678355787368">
        <ele>297.6</ele>
        <time>2015-06-12T12:02:08Z</time>
      </trkpt>
      <trkpt lat="57.655377672671" lon="14.678252773817">
        <ele>297.6</ele>
        <time>2015-06-12T12:02:09Z</time>
      </trkpt>
      <trkpt lat="57.655433579944" lon="14.678133667018">
        <ele>297.6</ele>
        <time>2015-06-12T12:02:10Z</time>
      </trkpt>
      <trkpt lat="57.655483871344" lon="14.678026127241">
        <ele>297.4</ele>
        <time>2015-06-12T12:02:11Z</time>
      </trkpt>
      <trkpt lat="57.655540952083" lon="14.67790383532">
        <ele>297.4</ele>
        <time>2015-06-12T12:02:12Z</time>
      </trkpt>
      <trkpt lat="57.655594931519" lon="14.677787746005">
        <ele>297.4</ele>
        <time>2015-06-12T12:02:13Z</time>
      </trkpt>
      <trkpt lat="57.655644384729" lon="14.677679787133">
        <ele>297.4</ele>
        <time>2015-06-12T12:02:14Z</time>
      </trkpt>
      <trkpt lat="57.655700124364" lon="14.677559758325">
        <ele>297.6</ele>
        <time>2015-06-12T12:02:15Z</time>
      </trkpt>
      <trkpt lat="57.655752678877" lon="14.677447524684">
        <ele>297.6</ele>
        <time>2015-06-12T12:02:16Z</time>
      </trkpt>
      <trkpt lat="57.655802048268" lon="14.677338727622">
        <ele>297.6</ele>
        <time>2015-06-12T12:02:17Z</time>
      </trkpt>
      <trkpt lat="57.655857117351" lon="14.677217525348">
        <ele>297.8</ele>
        <time>2015-06-12T12:02:18Z</time>
      </trkpt>
      <trkpt lat="57.655905397095" lon="14.6771092312">
        <ele>297.8</ele>
        <time>2015-06-12T12:02:19Z</time>
      </trkpt>
      <trkpt lat="57.655957281056" lon="14.676994985903">
        <ele>298</ele>
        <time>2015-06-12T12:02:20Z</time>
      </trkpt>
      <trkpt lat="57.656010087026" lon="14.676883841909">
        <ele>298</ele>
        <time>2015-06-12T12:02:21Z</time>
      </trkpt>
      <trkpt lat="57.656061048978" lon="14.676772027363">
        <ele>298</ele>
        <time>2015-06-12T12:02:22Z</time>
      </trkpt>
      <trkpt lat="57.656111927111" lon="14.676660883369">
        <ele>298</ele>
        <time>2015-06-12T12:02:23Z</time>
      </trkpt>
      <trkpt lat="57.656159955398" lon="14.676559462379">
        <ele>298</ele>
        <time>2015-06-12T12:02:24Z</time>
      </trkpt>
      <trkpt lat="57.656216197947" lon="14.676438260105">
        <ele>298</ele>
        <time>2015-06-12T12:02:25Z</time>
      </trkpt>
      <trkpt lat="57.656268584822" lon="14.676331809975">
        <ele>298</ele>
        <time>2015-06-12T12:02:26Z</time>
      </trkpt>
      <trkpt lat="57.656319546774" lon="14.676231059537">
        <ele>298.2</ele>
        <time>2015-06-12T12:02:27Z</time>
      </trkpt>
      <trkpt lat="57.656370089631" lon="14.676136176429">
        <ele>298.6</ele>
        <time>2015-06-12T12:02:28Z</time>
      </trkpt>
      <trkpt lat="57.656412250588" lon="14.676056799836">
        <ele>298.6</ele>
        <time>2015-06-12T12:02:29Z</time>
      </trkpt>
      <trkpt lat="57.656461703798" lon="14.675951187896">
        <ele>299</ele>
        <time>2015-06-12T12:02:30Z</time>
      </trkpt>
      <trkpt lat="57.656502272194" lon="14.675861669204">
        <ele>299.2</ele>
        <time>2015-06-12T12:02:31Z</time>
      </trkpt>
      <trkpt lat="57.656539906925" lon="14.675773323978">
        <ele>299.2</ele>
        <time>2015-06-12T12:02:32Z</time>
      </trkpt>
      <trkpt lat="57.656578547484" lon="14.675684559657">
        <ele>299.6</ele>
        <time>2015-06-12T12:02:33Z</time>
      </trkpt>
      <trkpt lat="57.656617690957" lon="14.675603422865">
        <ele>300</ele>
        <time>2015-06-12T12:02:34Z</time>
      </trkpt>
      <trkpt lat="57.656659097543" lon="14.675518011304">
        <ele>300.2</ele>
        <time>2015-06-12T12:02:35Z</time>
      </trkpt>
      <trkpt lat="57.656701342319" lon="14.675424972214">
        <ele>300.6</ele>
        <time>2015-06-12T12:02:36Z</time>
      </trkpt>
      <trkpt lat="57.656742245991" lon="14.675341069395">
        <ele>301</ele>
        <time>2015-06-12T12:02:37Z</time>
      </trkpt>
      <trkpt lat="57.656778958713" lon="14.675255071101">
        <ele>301</ele>
        <time>2015-06-12T12:02:38Z</time>
      </trkpt>
      <trkpt lat="57.656812905408" lon="14.675173179938">
        <ele>301.2</ele>
        <time>2015-06-12T12:02:39Z</time>
      </trkpt>
      <trkpt lat="57.656854982546" lon="14.675089025662">
        <ele>301.4</ele>
        <time>2015-06-12T12:02:40Z</time>
      </trkpt>
      <trkpt lat="57.656892868734" lon="14.675016438408">
        <ele>301.6</ele>
        <time>2015-06-12T12:02:41Z</time>
      </trkpt>
      <trkpt lat="57.656933520949" lon="14.674930356295">
        <ele>301.6</ele>
        <time>2015-06-12T12:02:42Z</time>
      </trkpt>
      <trkpt lat="57.656971323318" lon="14.674849722417">
        <ele>301.8</ele>
        <time>2015-06-12T12:02:43Z</time>
      </trkpt>
      <trkpt lat="57.657006443479" lon="14.674770932557">
        <ele>302</ele>
        <time>2015-06-12T12:02:44Z</time>
      </trkpt>
      <trkpt lat="57.657042737106" lon="14.674682252055">
        <ele>302.2</ele>
        <time>2015-06-12T12:02:45Z</time>
      </trkpt>
      <trkpt lat="57.657077270534" lon="14.674597343408">
        <ele>302.4</ele>
        <time>2015-06-12T12:02:46Z</time>
      </trkpt>
      <trkpt lat="57.657106858641" lon="14.674516541892">
        <ele>302.4</ele>
        <time>2015-06-12T12:02:47Z</time>
      </trkpt>
      <trkpt lat="57.657135357101" lon="14.674422161698">
        <ele>302.6</ele>
        <time>2015-06-12T12:02:48Z</time>
      </trkpt>
      <trkpt lat="57.657159832249" lon="14.674338761793">
        <ele>302.6</ele>
        <time>2015-06-12T12:02:49Z</time>
      </trkpt>
      <trkpt lat="57.657188414528" lon="14.674246309436">
        <ele>302.6</ele>
        <time>2015-06-12T12:02:50Z</time>
      </trkpt>
      <trkpt lat="57.65721758354" lon="14.674160394961">
        <ele>302.6</ele>
        <time>2015-06-12T12:02:51Z</time>
      </trkpt>
      <trkpt lat="57.657248764208" lon="14.674077833246">
        <ele>302.6</ele>
        <time>2015-06-12T12:02:52Z</time>
      </trkpt>
      <trkpt lat="57.657276340659" lon="14.673998624291">
        <ele>302.6</ele>
        <time>2015-06-12T12:02:53Z</time>
      </trkpt>
      <trkpt lat="57.657309365345" lon="14.673920337345">
        <ele>302.6</ele>
        <time>2015-06-12T12:02:54Z</time>
      </trkpt>
      <trkpt lat="57.657347922085" lon="14.673836685983">
        <ele>302.6</ele>
        <time>2015-06-12T12:02:55Z</time>
      </trkpt>
      <trkpt lat="57.657366948998" lon="14.67375228025">
        <ele>302.4</ele>
        <time>2015-06-12T12:02:56Z</time>
      </trkpt>
      <trkpt lat="57.657345658972" lon="14.673671394915">
        <ele>302.6</ele>
        <time>2015-06-12T12:02:57Z</time>
      </trkpt>
      <trkpt lat="57.657301653997" lon="14.673627892854">
        <ele>302.8</ele>
        <time>2015-06-12T12:02:58Z</time>
      </trkpt>
      <trkpt lat="57.65726452218" lon="14.673578523463">
        <ele>302.8</ele>
        <time>2015-06-12T12:02:59Z</time>
      </trkpt>
      <trkpt lat="57.657223618508" lon="14.673508534598">
        <ele>303</ele>
        <time>2015-06-12T12:03:00Z</time>
      </trkpt>
      <trkpt lat="57.657189671813" lon="14.673443993968">
        <ele>303.2</ele>
        <time>2015-06-12T12:03:01Z</time>
      </trkpt>
      <trkpt lat="57.657152037082" lon="14.673384063383">
        <ele>303.4</ele>
        <time>2015-06-12T12:03:02Z</time>
      </trkpt>
      <trkpt lat="57.657113228885" lon="14.673325892997">
        <ele>303.6</ele>
        <time>2015-06-12T12:03:03Z</time>
      </trkpt>
      <trkpt lat="57.657076516163" lon="14.673271494466">
        <ele>303.6</ele>
        <time>2015-06-12T12:03:04Z</time>
      </trkpt>
      <trkpt lat="57.657037707966" lon="14.673214497546">
        <ele>303.8</ele>
        <time>2015-06-12T12:03:05Z</time>
      </trkpt>
      <trkpt lat="57.656997558665" lon="14.67315632716">
        <ele>304.2</ele>
        <time>2015-06-12T12:03:06Z</time>
      </trkpt>
      <trkpt lat="57.656959253382" lon="14.673105281389">
        <ele>304.4</ele>
        <time>2015-06-12T12:03:07Z</time>
      </trkpt>
      <trkpt lat="57.65692254066" lon="14.673050882858">
        <ele>304.6</ele>
        <time>2015-06-12T12:03:08Z</time>
      </trkpt>
      <trkpt lat="57.656886917585" lon="14.672999082716">
        <ele>304.6</ele>
        <time>2015-06-12T12:03:09Z</time>
      </trkpt>
      <trkpt lat="57.656851713605" lon="14.672932949525">
        <ele>304.8</ele>
        <time>2015-06-12T12:03:10Z</time>
      </trkpt>
      <trkpt lat="57.65682028148" lon="14.672875701148">
        <ele>305</ele>
        <time>2015-06-12T12:03:11Z</time>
      </trkpt>
      <trkpt lat="57.65678004836" lon="14.67281853659">
        <ele>305.2</ele>
        <time>2015-06-12T12:03:12Z</time>
      </trkpt>
      <trkpt lat="57.656740737249" lon="14.672764557154">
        <ele>305.4</ele>
        <time>2015-06-12T12:03:13Z</time>
      </trkpt>
      <trkpt lat="57.656704108346" lon="14.672712421736">
        <ele>305.6</ele>
        <time>2015-06-12T12:03:14Z</time>
      </trkpt>
      <trkpt lat="57.656663623769" lon="14.672648803115">
        <ele>305.6</ele>
        <time>2015-06-12T12:03:15Z</time>
      </trkpt>
      <trkpt lat="57.656624647934" lon="14.672589962177">
        <ele>305.8</ele>
        <time>2015-06-12T12:03:16Z</time>
      </trkpt>
      <trkpt lat="57.656586510289" lon="14.672534473999">
        <ele>306</ele>
        <time>2015-06-12T12:03:17Z</time>
      </trkpt>
      <trkpt lat="57.656544265513" lon="14.672469933369">
        <ele>306.2</ele>
        <time>2015-06-12T12:03:18Z</time>
      </trkpt>
      <trkpt lat="57.656508893895" lon="14.672406230929">
        <ele>306.2</ele>
        <time>2015-06-12T12:03:19Z</time>
      </trkpt>
      <trkpt lat="57.656468828413" lon="14.672340265376">
        <ele>306.4</ele>
        <time>2015-06-12T12:03:20Z</time>
      </trkpt>
      <trkpt lat="57.656430858406" lon="14.672280083334">
        <ele>306.6</ele>
        <time>2015-06-12T12:03:21Z</time>
      </trkpt>
      <trkpt lat="57.656394648598" lon="14.672218979283">
        <ele>306.8</ele>
        <time>2015-06-12T12:03:22Z</time>
      </trkpt>
      <trkpt lat="57.656362881197" lon="14.672166927684">
        <ele>307</ele>
        <time>2015-06-12T12:03:23Z</time>
      </trkpt>
      <trkpt lat="57.656332538719" lon="14.672109260212">
        <ele>307.2</ele>
        <time>2015-06-12T12:03:24Z</time>
      </trkpt>
      <trkpt lat="57.656319630593" lon="14.672033320198">
        <ele>307.6</ele>
        <time>2015-06-12T12:03:25Z</time>
      </trkpt>
      <trkpt lat="57.656335891479" lon="14.671966348817">
        <ele>307.6</ele>
        <time>2015-06-12T12:03:26Z</time>
      </trkpt>
      <trkpt lat="57.656360450446" lon="14.671908094612">
        <ele>307.6</ele>
        <time>2015-06-12T12:03:27Z</time>
      </trkpt>
      <trkpt lat="57.656387943078" lon="14.67185210352">
        <ele>307.8</ele>
        <time>2015-06-12T12:03:28Z</time>
      </trkpt>
      <trkpt lat="57.656412837321" lon="14.671796028609">
        <ele>307.8</ele>
        <time>2015-06-12T12:03:29Z</time>
      </trkpt>
      <trkpt lat="57.656446951654" lon="14.671725704468">
        <ele>307.8</ele>
        <time>2015-06-12T12:03:30Z</time>
      </trkpt>
      <trkpt lat="57.656479054331" lon="14.671658397811">
        <ele>308</ele>
        <time>2015-06-12T12:03:31Z</time>
      </trkpt>
      <trkpt lat="57.656511157008" lon="14.671587570756">
        <ele>308</ele>
        <time>2015-06-12T12:03:32Z</time>
      </trkpt>
      <trkpt lat="57.656539823106" lon="14.67150928381">
        <ele>308.2</ele>
        <time>2015-06-12T12:03:33Z</time>
      </trkpt>
      <trkpt lat="57.656566896643" lon="14.671431835054">
        <ele>308.2</ele>
        <time>2015-06-12T12:03:34Z</time>
      </trkpt>
      <trkpt lat="57.656591790886" lon="14.671341561991">
        <ele>308.2</ele>
        <time>2015-06-12T12:03:35Z</time>
      </trkpt>
      <trkpt lat="57.656613416188" lon="14.671236369146">
        <ele>308</ele>
        <time>2015-06-12T12:03:36Z</time>
      </trkpt>
      <trkpt lat="57.656630599083" lon="14.671132768862">
        <ele>308</ele>
        <time>2015-06-12T12:03:37Z</time>
      </trkpt>
      <trkpt lat="57.656645686503" lon="14.671026570189">
        <ele>308.2</ele>
        <time>2015-06-12T12:03:38Z</time>
      </trkpt>
      <trkpt lat="57.656660354828" lon="14.67092674176">
        <ele>308.2</ele>
        <time>2015-06-12T12:03:39Z</time>
      </trkpt>
      <trkpt lat="57.656676699533" lon="14.670813418472">
        <ele>308.4</ele>
        <time>2015-06-12T12:03:40Z</time>
      </trkpt>
      <trkpt lat="57.65669120022" lon="14.670714847328">
        <ele>308.4</ele>
        <time>2015-06-12T12:03:41Z</time>
      </trkpt>
      <trkpt lat="57.656708466934" lon="14.670602781325">
        <ele>308.6</ele>
        <time>2015-06-12T12:03:42Z</time>
      </trkpt>
      <trkpt lat="57.656722129431" lon="14.670495995919">
        <ele>308.8</ele>
        <time>2015-06-12T12:03:43Z</time>
      </trkpt>
      <trkpt lat="57.656738474136" lon="14.670397592413">
        <ele>308.8</ele>
        <time>2015-06-12T12:03:44Z</time>
      </trkpt>
      <trkpt lat="57.656758003963" lon="14.670286448419">
        <ele>308.8</ele>
        <time>2015-06-12T12:03:45Z</time>
      </trkpt>
      <trkpt lat="57.656771582641" lon="14.670180165927">
        <ele>309</ele>
        <time>2015-06-12T12:03:46Z</time>
      </trkpt>
      <trkpt lat="57.656780802731" lon="14.670076481824">
        <ele>309</ele>
        <time>2015-06-12T12:03:47Z</time>
      </trkpt>
      <trkpt lat="57.656794129952" lon="14.669958548491">
        <ele>309</ele>
        <time>2015-06-12T12:03:48Z</time>
      </trkpt>
      <trkpt lat="57.656807960087" lon="14.669855283483">
        <ele>309</ele>
        <time>2015-06-12T12:03:49Z</time>
      </trkpt>
      <trkpt lat="57.656823466602" lon="14.669740199996">
        <ele>309</ele>
        <time>2015-06-12T12:03:50Z</time>
      </trkpt>
      <trkpt lat="57.656836626185" lon="14.669632324943">
        <ele>309.2</ele>
        <time>2015-06-12T12:03:51Z</time>
      </trkpt>
      <trkpt lat="57.656852551795" lon="14.669524366071">
        <ele>309.2</ele>
        <time>2015-06-12T12:03:52Z</time>
      </trkpt>
      <trkpt lat="57.656867639215" lon="14.669427471307">
        <ele>309.4</ele>
        <time>2015-06-12T12:03:53Z</time>
      </trkpt>
      <trkpt lat="57.656878032771" lon="14.669328564887">
        <ele>309.6</ele>
        <time>2015-06-12T12:03:54Z</time>
      </trkpt>
      <trkpt lat="57.656867723034" lon="14.669233681779">
        <ele>309.6</ele>
        <time>2015-06-12T12:03:55Z</time>
      </trkpt>
      <trkpt lat="57.656830842674" lon="14.66917827742">
        <ele>309.8</ele>
        <time>2015-06-12T12:03:56Z</time>
      </trkpt>
      <trkpt lat="57.656784742224" lon="14.669162854724">
        <ele>310</ele>
        <time>2015-06-12T12:03:57Z</time>
      </trkpt>
      <trkpt lat="57.656735540471" lon="14.669146510019">
        <ele>310.2</ele>
        <time>2015-06-12T12:03:58Z</time>
      </trkpt>
      <trkpt lat="57.656695642627" lon="14.669125219993">
        <ele>310.4</ele>
        <time>2015-06-12T12:03:59Z</time>
      </trkpt>
      <trkpt lat="57.656645770322" lon="14.669115496989">
        <ele>310.6</ele>
        <time>2015-06-12T12:04:00Z</time>
      </trkpt>
      <trkpt lat="57.656602938813" lon="14.669150198055">
        <ele>310.6</ele>
        <time>2015-06-12T12:04:01Z</time>
      </trkpt>
      <trkpt lat="57.656577290199" lon="14.669232424494">
        <ele>310.8</ele>
        <time>2015-06-12T12:04:02Z</time>
      </trkpt>
      <trkpt lat="57.656561029313" lon="14.66933250438">
        <ele>310.8</ele>
        <time>2015-06-12T12:04:03Z</time>
      </trkpt>
      <trkpt lat="57.656543259685" lon="14.669427555126">
        <ele>311</ele>
        <time>2015-06-12T12:04:04Z</time>
      </trkpt>
      <trkpt lat="57.656525406238" lon="14.669529981944">
        <ele>311</ele>
        <time>2015-06-12T12:04:05Z</time>
      </trkpt>
      <trkpt lat="57.65650763661" lon="14.669642131766">
        <ele>311.2</ele>
        <time>2015-06-12T12:04:06Z</time>
      </trkpt>
      <trkpt lat="57.65648835824" lon="14.669747240792">
        <ele>311.2</ele>
        <time>2015-06-12T12:04:07Z</time>
      </trkpt>
      <trkpt lat="57.656466732938" lon="14.669854026198">
        <ele>311</ele>
        <time>2015-06-12T12:04:08Z</time>
      </trkpt>
      <trkpt lat="57.656443431256" lon="14.669952513523">
        <ele>311.2</ele>
        <time>2015-06-12T12:04:09Z</time>
      </trkpt>
      <trkpt lat="57.656416106262" lon="14.670060304757">
        <ele>311.2</ele>
        <time>2015-06-12T12:04:10Z</time>
      </trkpt>
      <trkpt lat="57.656387691621" lon="14.670146135413">
        <ele>311</ele>
        <time>2015-06-12T12:04:11Z</time>
      </trkpt>
      <trkpt lat="57.656350140709" lon="14.670236743752">
        <ele>311.2</ele>
        <time>2015-06-12T12:04:12Z</time>
      </trkpt>
      <trkpt lat="57.656314769091" lon="14.670318132001">
        <ele>311.2</ele>
        <time>2015-06-12T12:04:13Z</time>
      </trkpt>
      <trkpt lat="57.656284258975" lon="14.670394826386">
        <ele>311.4</ele>
        <time>2015-06-12T12:04:14Z</time>
      </trkpt>
      <trkpt lat="57.656252491574" lon="14.670481495232">
        <ele>311.4</ele>
        <time>2015-06-12T12:04:15Z</time>
      </trkpt>
      <trkpt lat="57.656216952318" lon="14.670549472441">
        <ele>311.4</ele>
        <time>2015-06-12T12:04:16Z</time>
      </trkpt>
      <trkpt lat="57.656201864898" lon="14.670620718591">
        <ele>311.2</ele>
        <time>2015-06-12T12:04:17Z</time>
      </trkpt>
      <trkpt lat="57.656191555161" lon="14.670696490967">
        <ele>311.2</ele>
        <time>2015-06-12T12:04:18Z</time>
      </trkpt>
      <trkpt lat="57.656177892664" lon="14.670746782367">
        <ele>311.6</ele>
        <time>2015-06-12T12:04:19Z</time>
      </trkpt>
      <trkpt lat="57.656166241823" lon="14.670764468176">
        <ele>311.6</ele>
        <time>2015-06-12T12:04:20Z</time>
      </trkpt>
      <trkpt lat="57.65616649328" lon="14.670764551995">
        <ele>311.6</ele>
        <time>2015-06-12T12:04:21Z</time>
      </trkpt>
      <trkpt lat="57.656168924031" lon="14.670762875615">
        <ele>311.8</ele>
        <time>2015-06-12T12:04:22Z</time>
      </trkpt>
      <trkpt lat="57.656169929859" lon="14.670762791796">
        <ele>311.8</ele>
        <time>2015-06-12T12:04:23Z</time>
      </trkpt>
      <trkpt lat="57.656170432773" lon="14.670764216719">
        <ele>312</ele>
        <time>2015-06-12T12:04:24Z</time>
      </trkpt>
      <trkpt lat="57.656174120809" lon="14.670766144556">
        <ele>312.4</ele>
        <time>2015-06-12T12:04:25Z</time>
      </trkpt>
      <trkpt lat="57.656172612067" lon="14.670783159813">
        <ele>312.6</ele>
        <time>2015-06-12T12:04:27Z</time>
      </trkpt>
      <trkpt lat="57.656174372266" lon="14.670777879216">
        <ele>312.6</ele>
        <time>2015-06-12T12:04:28Z</time>
      </trkpt>
      <trkpt lat="57.656174120809" lon="14.670777627759">
        <ele>313</ele>
        <time>2015-06-12T12:04:29Z</time>
      </trkpt>
      <trkpt lat="57.656173031162" lon="14.670781148157">
        <ele>313.6</ele>
        <time>2015-06-12T12:04:31Z</time>
      </trkpt>
      <trkpt lat="57.656175042818" lon="14.670779723234">
        <ele>313.6</ele>
        <time>2015-06-12T12:04:32Z</time>
      </trkpt>
      <trkpt lat="57.656175461913" lon="14.670783914184">
        <ele>313.6</ele>
        <time>2015-06-12T12:04:33Z</time>
      </trkpt>
      <trkpt lat="57.656179317587" lon="14.670786344935">
        <ele>313.8</ele>
        <time>2015-06-12T12:04:34Z</time>
      </trkpt>
      <trkpt lat="57.656182502709" lon="14.670789194781">
        <ele>314</ele>
        <time>2015-06-12T12:04:35Z</time>
      </trkpt>
      <trkpt lat="57.656185017279" lon="14.670792715179">
        <ele>314.2</ele>
        <time>2015-06-12T12:04:36Z</time>
      </trkpt>
      <trkpt lat="57.656186693659" lon="14.670798917785">
        <ele>314.2</ele>
        <time>2015-06-12T12:04:37Z</time>
      </trkpt>
      <trkpt lat="57.656186861297" lon="14.670802270545">
        <ele>314.4</ele>
        <time>2015-06-12T12:04:38Z</time>
      </trkpt>
      <trkpt lat="57.656187196573" lon="14.67080520421">
        <ele>314.4</ele>
        <time>2015-06-12T12:04:39Z</time>
      </trkpt>
    </trkseg>
  </trk>
</gpx>